createdAt,value
2023-03-29T00:03:08.970Z,9.20
2023-03-29T00:07:10.632Z,9.19
2023-03-29T00:11:12.531Z,9.13
2023-03-29T00:15:14.444Z,9.16
2023-03-29T00:19:16.181Z,9.15
2023-03-29T00:23:18.307Z,9.15
2023-03-29T00:27:21.755Z,9.13
2023-03-29T00:31:23.371Z,9.12
2023-03-29T00:35:24.993Z,9.08
2023-03-29T00:39:28.008Z,9.04
2023-03-29T00:43:30.712Z,9.01
2023-03-29T00:47:57.177Z,8.96
2023-03-29T00:51:59.292Z,8.86
2023-03-29T00:56:11.840Z,8.85
2023-03-29T01:00:21.042Z,8.83
2023-03-29T01:04:25.814Z,8.80
2023-03-29T01:08:31.924Z,8.76
2023-03-29T01:12:40.803Z,8.76
2023-03-29T01:16:42.651Z,8.71
2023-03-29T01:21:20.358Z,8.71
2023-03-29T01:25:35.727Z,8.73
2023-03-29T01:29:50.908Z,8.71
2023-03-29T01:33:58.883Z,8.70
2023-03-29T01:38:24.366Z,8.71
2023-03-29T01:42:49.406Z,8.71
2023-03-29T01:47:18.894Z,8.70
2023-03-29T01:51:36.387Z,8.70
2023-03-29T01:55:42.934Z,8.75
2023-03-29T01:59:47.253Z,8.78
2023-03-29T02:03:51.261Z,8.71
2023-03-29T02:07:54.932Z,8.75
2023-03-29T02:12:00.490Z,8.75
2023-03-29T02:16:08.295Z,8.73
2023-03-29T02:20:22.585Z,8.75
2023-03-29T02:24:27.298Z,8.75
2023-03-29T02:28:30.555Z,8.76
2023-03-29T02:33:10.702Z,8.71
2023-03-29T02:37:17.535Z,8.68
2023-03-29T02:41:22.228Z,8.70
2023-03-29T02:45:25.806Z,8.65
2023-03-29T02:49:28.089Z,8.68
2023-03-29T02:53:38.285Z,8.71
2023-03-29T02:57:40.958Z,8.71
2023-03-29T03:01:42.842Z,8.70
2023-03-29T03:05:44.609Z,8.68
2023-03-29T03:09:47.663Z,8.71
2023-03-29T03:13:49.383Z,8.67
2023-03-29T03:17:51.066Z,8.67
2023-03-29T03:21:52.723Z,8.63
2023-03-29T03:25:56.746Z,8.61
2023-03-29T03:29:58.636Z,8.64
2023-03-29T03:34:19.558Z,8.67
2023-03-29T03:38:31.104Z,8.67
2023-03-29T03:42:34.549Z,8.61
2023-03-29T03:46:36.888Z,8.61
2023-03-29T03:50:40.447Z,8.63
2023-03-29T03:54:43.034Z,8.60
2023-03-29T03:59:05.405Z,8.54
2023-03-29T04:03:25.724Z,8.50
2023-03-29T04:07:27.684Z,8.52
2023-03-29T04:11:39.151Z,8.47
2023-03-29T04:15:41.502Z,8.45
2023-03-29T04:19:47.176Z,8.43
2023-03-29T04:23:49.548Z,8.43
2023-03-29T04:27:51.980Z,8.43
2023-03-29T04:32:12.625Z,8.42
2023-03-29T04:36:30.893Z,8.45
2023-03-29T04:40:33.464Z,8.45
2023-03-29T04:44:46.447Z,8.40
2023-03-29T04:48:54.024Z,8.43
2023-03-29T04:53:05.994Z,8.45
2023-03-29T04:57:08.557Z,8.45
2023-03-29T05:01:29.000Z,8.42
2023-03-29T05:05:32.815Z,8.43
2023-03-29T05:09:37.454Z,8.43
2023-03-29T05:13:40.073Z,8.45
2023-03-29T05:17:42.437Z,8.43
2023-03-29T05:21:46.895Z,8.42
2023-03-29T05:25:53.322Z,8.39
2023-03-29T05:29:55.210Z,8.32
2023-03-29T05:34:09.881Z,8.31
2023-03-29T05:38:25.417Z,8.31
2023-03-29T05:42:27.947Z,8.29
2023-03-29T05:46:33.879Z,8.31
2023-03-29T05:50:38.385Z,8.36
2023-03-29T05:54:41.572Z,8.45
2023-03-29T05:58:46.596Z,8.45
2023-03-29T06:02:48.947Z,8.45
2023-03-29T06:06:50.978Z,8.43
2023-03-29T06:11:05.181Z,8.43
2023-03-29T06:15:36.937Z,8.49
2023-03-29T06:19:41.208Z,8.52
2023-03-29T06:23:43.119Z,8.58
2023-03-29T06:27:49.221Z,8.65
2023-03-29T06:31:54.415Z,8.73
2023-03-29T06:36:20.085Z,8.80
2023-03-29T06:40:23.010Z,8.89
2023-03-29T06:44:25.587Z,8.93
2023-03-29T06:48:34.625Z,9.00
2023-03-29T06:52:36.699Z,9.15
2023-03-29T06:56:39.542Z,9.23
2023-03-29T07:00:47.464Z,9.26
2023-03-29T07:04:56.154Z,9.38
2023-03-29T07:09:06.557Z,9.45
2023-03-29T07:13:27.561Z,9.50
2023-03-29T07:17:32.211Z,9.55
2023-03-29T07:21:36.666Z,9.58
2023-03-29T07:25:40.993Z,9.63
2023-03-29T07:29:43.145Z,9.71
2023-03-29T07:33:45.014Z,9.77
2023-03-29T07:37:47.537Z,9.85
2023-03-29T07:41:49.145Z,9.92
2023-03-29T07:45:52.659Z,9.93
2023-03-29T07:49:55.984Z,9.93
2023-03-29T07:53:57.964Z,9.99
2023-03-29T07:58:22.798Z,10.09
2023-03-29T08:02:24.471Z,10.13
2023-03-29T08:06:29.594Z,10.17
2023-03-29T08:10:31.561Z,10.28
2023-03-29T08:14:47.891Z,10.34
2023-03-29T08:18:59.560Z,10.36
2023-03-29T08:23:13.960Z,10.35
2023-03-29T08:27:29.934Z,10.39
2023-03-29T08:31:32.265Z,10.44
2023-03-29T08:35:34.084Z,10.52
2023-03-29T08:39:58.553Z,10.66
2023-03-29T08:44:42.898Z,10.78
2023-03-29T08:48:59.337Z,10.91
2023-03-29T08:53:08.797Z,10.95
2023-03-29T08:57:33.222Z,11.02
2023-03-29T09:01:45.270Z,10.99
2023-03-29T09:05:53.406Z,11.02
2023-03-29T09:09:59.658Z,11.20
2023-03-29T09:14:24.361Z,11.51
2023-03-29T09:18:39.300Z,11.78
2023-03-29T09:23:02.730Z,12.04
2023-03-29T09:27:26.655Z,12.29
2023-03-29T09:31:44.365Z,12.52
2023-03-29T09:35:57.355Z,12.76
2023-03-29T09:40:04.552Z,12.99
2023-03-29T09:44:31.767Z,13.12
2023-03-29T09:48:41.414Z,13.16
2023-03-29T09:52:43.594Z,13.27
2023-03-29T09:56:54.286Z,13.32
2023-03-29T10:01:03.110Z,13.43
2023-03-29T10:05:07.384Z,13.53
2023-03-29T10:09:24.245Z,13.66
2023-03-29T10:13:35.011Z,13.84
2023-03-29T10:17:40.795Z,13.90
2023-03-29T10:21:42.453Z,13.88
2023-03-29T10:25:45.432Z,13.98
2023-03-29T10:29:47.132Z,14.16
2023-03-29T10:33:56.658Z,14.13
2023-03-29T10:37:59.376Z,14.08
2023-03-29T10:42:04.091Z,14.21
2023-03-29T10:46:14.407Z,14.31
2023-03-29T10:50:16.504Z,14.34
2023-03-29T10:54:22.193Z,14.59
2023-03-29T10:58:56.077Z,14.66
2023-03-29T11:03:30.473Z,14.69
2023-03-29T11:07:55.651Z,14.67
2023-03-29T11:12:28.422Z,14.67
2023-03-29T11:17:00.918Z,14.85
2023-03-29T11:21:14.168Z,15.12
2023-03-29T11:25:40.741Z,15.27
2023-03-29T11:30:00.323Z,15.31
2023-03-29T11:34:15.503Z,15.41
2023-03-29T11:38:32.324Z,15.53
2023-03-29T11:42:38.332Z,15.66
2023-03-29T11:46:45.781Z,15.80
2023-03-29T11:50:49.526Z,16.13
2023-03-29T11:55:12.198Z,16.36
2023-03-29T11:59:28.635Z,16.33
2023-03-29T12:03:56.822Z,16.16
2023-03-29T12:08:32.894Z,16.03
2023-03-29T12:13:02.283Z,16.22
2023-03-29T12:17:08.419Z,16.41
2023-03-29T12:21:17.108Z,16.60
2023-03-29T12:25:52.798Z,16.90
2023-03-29T12:30:13.108Z,17.10
2023-03-29T12:34:43.206Z,17.25
2023-03-29T12:39:19.101Z,17.36
2023-03-29T12:43:43.372Z,17.53
2023-03-29T12:48:00.642Z,17.68
2023-03-29T12:52:08.393Z,17.81
2023-03-29T12:56:14.393Z,17.76
2023-03-29T13:01:06.132Z,17.54
2023-03-29T13:05:29.150Z,17.63
2023-03-29T13:09:36.659Z,18.11
2023-03-29T13:13:40.817Z,18.35
2023-03-29T13:18:17.709Z,18.36
2023-03-29T13:22:34.123Z,18.72
2023-03-29T13:26:51.012Z,19.01
2023-03-29T13:30:59.597Z,19.25
2023-03-29T13:35:17.029Z,19.39
2023-03-29T13:39:27.954Z,19.07
2023-03-29T13:43:32.747Z,19.13
2023-03-29T13:47:34.248Z,19.31
2023-03-29T13:51:42.421Z,19.21
2023-03-29T13:55:48.839Z,19.32
2023-03-29T14:00:15.527Z,19.24
2023-03-29T14:04:23.797Z,19.13
2023-03-29T14:08:30.089Z,18.78
2023-03-29T14:12:40.386Z,18.56
2023-03-29T14:16:43.882Z,18.31
2023-03-29T14:20:48.994Z,18.05
2023-03-29T14:24:56.748Z,18.01
2023-03-29T14:29:01.298Z,18.09
2023-03-29T14:33:05.086Z,18.01
2023-03-29T14:37:09.001Z,17.95
2023-03-29T14:41:10.783Z,17.86
2023-03-29T14:45:15.342Z,17.86
2023-03-29T14:49:19.375Z,17.74
2023-03-29T14:53:22.827Z,17.83
2023-03-29T14:57:27.252Z,17.79
2023-03-29T15:01:28.910Z,17.76
2023-03-29T15:05:35.783Z,17.77
2023-03-29T15:09:39.910Z,17.81
2023-03-29T15:13:43.812Z,17.66
2023-03-29T15:17:51.886Z,17.68
2023-03-29T15:21:54.300Z,17.87
2023-03-29T15:25:58.393Z,17.84
2023-03-29T15:30:04.278Z,17.81
2023-03-29T15:34:09.395Z,17.79
2023-03-29T15:38:13.053Z,17.68
2023-03-29T15:42:14.718Z,17.53
2023-03-29T15:46:16.588Z,17.54
2023-03-29T15:50:18.187Z,17.49
2023-03-29T15:54:21.512Z,17.39
2023-03-29T15:58:27.045Z,17.30
2023-03-29T16:02:28.732Z,17.17
2023-03-29T16:06:30.601Z,17.17
2023-03-29T16:10:32.181Z,17.09
2023-03-29T16:14:34.072Z,16.99
2023-03-29T16:18:36.173Z,16.85
2023-03-29T16:22:37.695Z,16.78
2023-03-29T16:26:39.221Z,16.70
2023-03-29T16:30:43.203Z,16.62
2023-03-29T16:34:44.805Z,16.50
2023-03-29T16:38:46.624Z,16.40
2023-03-29T16:42:48.159Z,16.30
2023-03-29T16:46:49.801Z,16.23
2023-03-29T16:50:51.754Z,16.14
2023-03-29T16:54:53.609Z,16.13
2023-03-29T16:58:55.178Z,16.08
2023-03-29T17:02:56.812Z,16.01
2023-03-29T17:06:58.496Z,15.95
2023-03-29T17:11:00.190Z,15.91
2023-03-29T17:15:01.908Z,15.85
2023-03-29T17:19:03.474Z,15.78
2023-03-29T17:23:05.002Z,15.71
2023-03-29T17:27:06.704Z,15.68
2023-03-29T17:31:08.352Z,15.62
2023-03-29T17:35:10.644Z,15.56
2023-03-29T17:39:18.648Z,15.53
2023-03-29T17:43:20.931Z,15.48
2023-03-29T17:47:22.485Z,15.43
2023-03-29T17:51:24.006Z,15.38
2023-03-29T17:55:26.440Z,15.33
2023-03-29T17:59:28.033Z,15.27
2023-03-29T18:03:29.738Z,15.20
2023-03-29T18:07:31.661Z,15.19
2023-03-29T18:11:33.278Z,15.16
2023-03-29T18:15:35.386Z,15.13
2023-03-29T18:19:36.899Z,15.07
2023-03-29T18:23:42.090Z,15.05
2023-03-29T18:27:43.810Z,15.00
2023-03-29T18:31:46.132Z,14.97
2023-03-29T18:35:50.473Z,14.94
2023-03-29T18:39:52.160Z,14.93
2023-03-29T18:43:57.184Z,14.90
2023-03-29T18:47:58.941Z,14.87
2023-03-29T18:52:02.017Z,14.86
2023-03-29T18:56:04.455Z,14.85
2023-03-29T19:00:14.715Z,14.82
2023-03-29T19:04:16.380Z,14.80
2023-03-29T19:08:18.266Z,14.79
2023-03-29T19:12:19.978Z,14.75
2023-03-29T19:16:22.014Z,14.74
2023-03-29T19:20:25.496Z,14.74
2023-03-29T19:24:27.516Z,14.71
2023-03-29T19:28:29.825Z,14.69
2023-03-29T19:32:33.644Z,14.64
2023-03-29T19:36:35.738Z,14.64
2023-03-29T19:40:37.501Z,14.64
2023-03-29T19:44:39.138Z,14.63
2023-03-29T19:48:41.027Z,14.61
2023-03-29T19:52:42.977Z,14.59
2023-03-29T19:56:44.588Z,14.53
2023-03-29T20:00:46.758Z,14.52
2023-03-29T20:04:48.539Z,14.54
2023-03-29T20:08:50.300Z,14.52
2023-03-29T20:12:52.050Z,14.52
2023-03-29T20:16:54.550Z,14.46
2023-03-29T20:20:56.775Z,14.45
2023-03-29T20:24:58.467Z,14.45
2023-03-29T20:29:00.101Z,14.41
2023-03-29T20:33:01.856Z,14.39
2023-03-29T20:37:03.662Z,14.36
2023-03-29T20:41:05.997Z,14.35
2023-03-29T20:45:18.162Z,14.34
2023-03-29T20:49:26.173Z,14.34
2023-03-29T20:53:34.560Z,14.35
2023-03-29T20:57:36.825Z,14.35
2023-03-29T21:01:42.325Z,14.30
2023-03-29T21:05:44.616Z,14.30
2023-03-29T21:09:47.282Z,14.29
2023-03-29T21:13:48.878Z,14.24
2023-03-29T21:17:50.511Z,14.24
2023-03-29T21:21:52.233Z,14.24
2023-03-29T21:25:53.950Z,14.21
2023-03-29T21:29:55.791Z,14.21
2023-03-29T21:33:57.329Z,14.19
2023-03-29T21:38:00.116Z,14.17
2023-03-29T21:42:01.850Z,14.13
2023-03-29T21:46:03.600Z,14.13
2023-03-29T21:50:05.892Z,14.11
2023-03-29T21:54:07.608Z,14.12
2023-03-29T21:58:09.311Z,14.12
2023-03-29T22:02:11.168Z,14.12
2023-03-29T22:06:14.382Z,14.11
2023-03-29T22:10:17.013Z,14.11
2023-03-29T22:14:19.391Z,14.11
2023-03-29T22:18:21.731Z,14.11
2023-03-29T22:22:24.421Z,14.13
2023-03-29T22:26:28.962Z,14.16
2023-03-29T22:30:30.932Z,14.17
2023-03-29T22:34:32.609Z,14.20
2023-03-29T22:38:34.255Z,14.19
2023-03-29T22:42:36.057Z,14.20
2023-03-29T22:46:37.916Z,14.23
2023-03-29T22:50:42.845Z,14.27
2023-03-29T22:54:44.536Z,14.24
2023-03-29T22:58:46.462Z,14.27
2023-03-29T23:02:48.128Z,14.27
2023-03-29T23:06:49.756Z,14.30
2023-03-29T23:10:52.184Z,14.31
2023-03-29T23:14:55.838Z,14.34
2023-03-29T23:18:58.457Z,14.34
2023-03-29T23:23:04.086Z,14.34
2023-03-29T23:27:06.136Z,14.34
2023-03-29T23:31:11.464Z,14.35
2023-03-29T23:35:16.814Z,14.36
2023-03-29T23:39:18.944Z,14.38
2023-03-29T23:43:22.537Z,14.41
2023-03-29T23:47:27.137Z,14.42
2023-03-29T23:51:29.407Z,14.39
2023-03-29T23:55:31.360Z,14.39
2023-03-29T23:59:37.769Z,14.42
